Caribbean Galaxy — 3EZV4 — position and weather

sailwx.info

Track history (hours):
 
Tides and Currents Weather Stations Pressure Air Temp Water Temp Dewpoint Dewpoint Depression Visibility Wind Speed Wind Dir Waves Ship Positions

Caribbean Galaxy

Last reported at 2016-Jan-23 08:33 UTC. Time now 2016-Feb-11 08:46 UTC.
Position N 34°46' E 140°12'.
Warning: this ship's position is 19 days out of date.

Length 246 m; draft 8 m.

Type: Tanker. MMSI: 357449000.

Date/timePositionNaut miles runAvg speedWind from/ knotsBaromVisibWave heightAir tempDewpointWater temp
2016-Jan-23 08:33N 34°46' E 140°12'1212.0
2016-Jan-23 07:33N 34°48' E 139°58'1212.4
2016-Jan-23 06:33N 34°55' E 139°45'1212.5
2016-Jan-23 05:33N 35°08' E 139°45'1111.1
2016-Jan-23 04:33N 35°19' E 139°43'1111.1
2016-Jan-23 03:33N 35°29' E 139°50'7 7.0
2016-Jan-23 02:33N 35°34' E 139°56'0 0.0
2016-Jan-23 01:33N 35°34' E 139°56'0 0.0
2016-Jan-23 00:33N 35°34' E 139°56'0 0.0
2016-Jan-22 23:33N 35°34' E 139°56'0 0.0
2016-Jan-22 22:33N 35°34' E 139°56'0 0.0
2016-Jan-22 21:33N 35°34' E 139°56'0 0.0
2016-Jan-22 20:33N 35°34' E 139°56'0 0.0
2016-Jan-22 19:30N 35°34' E 139°56'0 0.1
2016-Jan-22 18:33N 35°34' E 139°56'0 0.0
2016-Jan-22 17:33N 35°34' E 139°56'0 0.1
2016-Jan-22 16:33N 35°34' E 139°56'0 0.1
2016-Jan-22 15:33N 35°34' E 139°56'0 0.0
2016-Jan-22 14:33N 35°34' E 139°56'0 0.0
2016-Jan-22 13:30N 35°34' E 139°56'0 0.0
2016-Jan-22 12:33N 35°34' E 139°56'0 0.0
2016-Jan-22 11:33N 35°34' E 139°56'0 0.0
2016-Jan-22 10:24N 35°34' E 139°56'0 0.1
2016-Jan-22 09:33N 35°34' E 139°56'0 0.0
2016-Jan-22 08:33N 35°34' E 139°56'0 0.0
2016-Jan-22 07:33N 35°34' E 139°56'0 0.0
2016-Jan-22 06:33N 35°34' E 139°56'0 0.0
2016-Jan-22 05:33N 35°34' E 139°56'6 5.5
2016-Jan-22 04:33N 35°29' E 140°00'0 0.4
2016-Jan-22 03:31N 35°29' E 140°00'0 0.0
2016-Jan-22 02:28N 35°29' E 140°00'0 0.0
2016-Jan-22 01:28N 35°29' E 140°00'0 0.0
2016-Jan-22 00:28N 35°29' E 140°00'0 0.0
2016-Jan-21 23:28N 35°29' E 140°00'0 0.0
2016-Jan-21 22:22N 35°29' E 140°00'0 0.0
2016-Jan-21 21:28N 35°29' E 140°00'0 0.0
2016-Jan-21 20:28N 35°29' E 140°00'0 0.0
2016-Jan-21 19:16N 35°29' E 140°00'0 0.0
2016-Jan-21 18:28N 35°29' E 140°00'0 0.0
2016-Jan-21 17:22N 35°29' E 140°00'0 0.0
2016-Jan-21 15:28N 35°29' E 140°00'0 0.0
2016-Jan-21 13:28N 35°29' E 140°00'0 0.0
2016-Jan-21 12:28N 35°29' E 140°00'0 0.0
2016-Jan-21 11:22N 35°29' E 140°00'0 0.0
2016-Jan-21 10:28N 35°29' E 140°00'0 0.0
2016-Jan-21 09:28N 35°29' E 140°00'0 0.0
2016-Jan-21 08:22N 35°29' E 140°00'0 0.0
2016-Jan-21 07:16N 35°29' E 140°00'0 0.0
2016-Jan-21 06:28N 35°29' E 140°00'0 0.0
2016-Jan-21 05:28N 35°29' E 140°00'0 0.0
2016-Jan-21 04:22N 35°29' E 140°00'0 0.0
2016-Jan-21 03:16N 35°29' E 140°00'0 0.0
2016-Jan-21 02:28N 35°29' E 140°00'0 0.0
2016-Jan-21 01:28N 35°29' E 140°00'1 1.4
2016-Jan-21 00:33N 35°30' E 139°59'5 4.6
2016-Jan-20 23:32N 35°34' E 139°56'0 0.1
2016-Jan-20 22:32N 35°34' E 139°56'0 0.0
2016-Jan-20 21:32N 35°34' E 139°56'0 0.0
2016-Jan-20 20:29N 35°34' E 139°56'0 0.0
2016-Jan-20 19:32N 35°34' E 139°56'0 0.0
2016-Jan-20 18:32N 35°34' E 139°56'0 0.0
2016-Jan-20 17:32N 35°34' E 139°56'0 0.1
2016-Jan-20 16:32N 35°34' E 139°56'0 0.1
2016-Jan-20 15:32N 35°34' E 139°56'0 0.0
2016-Jan-20 14:32N 35°34' E 139°56'0 0.0
2016-Jan-20 13:29N 35°34' E 139°56'0 0.0
2016-Jan-20 12:32N 35°34' E 139°56'0 0.0
2016-Jan-20 11:32N 35°34' E 139°56'0 0.1
2016-Jan-20 10:32N 35°34' E 139°56'0 0.0
2016-Jan-20 09:32N 35°34' E 139°56'0 0.0
2016-Jan-20 08:32N 35°34' E 139°56'0 0.0
2016-Jan-20 07:32N 35°34' E 139°56'0 0.0
2016-Jan-20 06:32N 35°34' E 139°56'0 0.0
2016-Jan-20 05:32N 35°34' E 139°56'0 0.0
2016-Jan-20 04:34N 35°34' E 139°56'0 0.0
2016-Jan-20 03:30N 35°34' E 139°56'0 0.0
2016-Jan-20 02:32N 35°34' E 139°56'0 0.1
2016-Jan-20 01:24N 35°34' E 139°56'0 0.1
2016-Jan-20 00:28N 35°34' E 139°56'0 0.1
2016-Jan-19 23:26N 35°34' E 139°56'0 0.0
2016-Jan-19 22:29N 35°34' E 139°56'0 0.0
2016-Jan-19 21:26N 35°34' E 139°56'0 0.0
2016-Jan-19 20:23N 35°34' E 139°56'0 0.1
2016-Jan-19 19:30N 35°34' E 139°56'0 0.1
2016-Jan-19 18:33N 35°34' E 139°56'0 0.0
2016-Jan-19 17:31N 35°34' E 139°56'0 0.1
2016-Jan-19 16:33N 35°34' E 139°56'0 0.0
2016-Jan-19 15:31N 35°34' E 139°56'0 0.0
2016-Jan-19 14:19N 35°34' E 139°56'0 0.0
2016-Jan-19 13:32N 35°34' E 139°56'0 0.0
2016-Jan-19 12:31N 35°34' E 139°56'0 0.0
2016-Jan-19 11:32N 35°34' E 139°56'0 0.0
2016-Jan-19 10:13N 35°34' E 139°56'0 0.0
2016-Jan-19 09:22N 35°34' E 139°56'0 0.1
2016-Jan-19 08:33N 35°34' E 139°56'0 0.0
2016-Jan-19 07:34N 35°34' E 139°56'0 0.0
2016-Jan-19 06:31N 35°34' E 139°56'0 0.0
2016-Jan-19 05:32N 35°34' E 139°56'0 0.0
2016-Jan-19 04:31N 35°34' E 139°56'0 0.1
2016-Jan-19 03:34N 35°34' E 139°56'0 0.0
2016-Jan-19 02:30N 35°34' E 139°56'0 0.0
2016-Jan-19 01:33N 35°34' E 139°56'0 0.0
2016-Jan-19 00:31N 35°34' E 139°56'0 0.0
2016-Jan-18 23:30N 35°34' E 139°56'0 0.0
2016-Jan-18 22:34N 35°34' E 139°56'0 0.0
2016-Jan-18 21:31N 35°34' E 139°56'0 0.0
2016-Jan-18 20:32N 35°34' E 139°56'0 0.0
2016-Jan-18 19:29N 35°34' E 139°56'0 0.0
2016-Jan-18 18:32N 35°34' E 139°56'0 0.1
2016-Jan-18 17:32N 35°34' E 139°56'0 0.0
2016-Jan-18 16:31N 35°34' E 139°56'0 0.0
2016-Jan-18 15:33N 35°34' E 139°56'0 0.0
2016-Jan-18 14:32N 35°34' E 139°56'0 0.0
2016-Jan-18 13:29N 35°34' E 139°56'0 0.1
2016-Jan-18 12:22N 35°34' E 139°56'0 0.1
2016-Jan-18 11:32N 35°34' E 139°56'0 0.2
2016-Jan-18 10:32N 35°34' E 139°56'0 0.0
2016-Jan-18 09:32N 35°34' E 139°56'0 0.1
2016-Jan-18 08:32N 35°34' E 139°56'0 0.0
2016-Jan-18 07:33N 35°34' E 139°56'0 0.0
2016-Jan-18 06:29N 35°34' E 139°56'0 0.0
2016-Jan-18 05:32N 35°34' E 139°56'0 0.1
2016-Jan-18 04:33N 35°34' E 139°56'0 0.0
2016-Jan-18 03:33N 35°34' E 139°56'0 0.0
2016-Jan-18 02:31N 35°34' E 139°56'0 0.1
2016-Jan-18 01:32N 35°34' E 139°56'0 0.0
2016-Jan-18 00:30N 35°34' E 139°56'0 0.0
2016-Jan-17 23:33N 35°34' E 139°56'0 0.0
2016-Jan-17 22:33N 35°34' E 139°56'0 0.0
2016-Jan-17 21:33N 35°34' E 139°56'0 0.0
2016-Jan-17 20:30N 35°34' E 139°56'0 0.1
2016-Jan-17 19:33N 35°34' E 139°56'0 0.1
2016-Jan-17 18:33N 35°34' E 139°56'0 0.1
2016-Jan-17 17:33N 35°34' E 139°56'0 0.0
2016-Jan-17 16:30N 35°34' E 139°56'0 0.0
2016-Jan-17 15:30N 35°34' E 139°56'0 0.0
2016-Jan-17 14:33N 35°34' E 139°56'0 0.0
2016-Jan-17 13:30N 35°34' E 139°56'0 0.0
2016-Jan-17 12:33N 35°34' E 139°56'0 0.0
2016-Jan-17 11:30N 35°34' E 139°56'0 0.1
2016-Jan-17 10:27N 35°34' E 139°56'0 0.0
2016-Jan-17 09:33N 35°34' E 139°56'0 0.0
2016-Jan-17 08:33N 35°34' E 139°56'0 0.0
2016-Jan-17 07:33N 35°34' E 139°56'0 0.1
2016-Jan-17 06:33N 35°34' E 139°56'0 0.0
2016-Jan-17 05:33N 35°34' E 139°56'0 0.0
2016-Jan-17 04:33N 35°34' E 139°56'0 0.0
2016-Jan-17 03:30N 35°34' E 139°56'0 0.1
2016-Jan-17 02:33N 35°34' E 139°56'0 0.0
2016-Jan-17 01:33N 35°34' E 139°56'0 0.0
2016-Jan-17 00:33N 35°34' E 139°56'0 0.0
2016-Jan-16 23:33N 35°34' E 139°56'0 0.0
2016-Jan-16 22:33N 35°34' E 139°56'0 0.0
2016-Jan-16 21:30N 35°34' E 139°56'0 0.1
2016-Jan-16 20:33N 35°34' E 139°56'0 0.0
2016-Jan-16 19:33N 35°34' E 139°56'0 0.1
2016-Jan-16 18:33N 35°34' E 139°56'0 0.0
2016-Jan-16 17:33N 35°34' E 139°56'0 0.0
2016-Jan-16 16:33N 35°34' E 139°56'0 0.0
2016-Jan-16 15:33N 35°34' E 139°56'0 0.0
2016-Jan-16 14:33N 35°34' E 139°56'0 0.1
2016-Jan-16 13:33N 35°34' E 139°56'0 0.1
2016-Jan-16 12:33N 35°34' E 139°56'0 0.0
2016-Jan-16 11:33N 35°34' E 139°56'0 0.2
2016-Jan-16 10:33N 35°34' E 139°56'0 0.1
2016-Jan-16 09:33N 35°34' E 139°56'0 0.1
2016-Jan-16 08:33N 35°34' E 139°56'0 0.1
2016-Jan-16 07:27N 35°34' E 139°56'0 0.1
2016-Jan-16 06:30N 35°34' E 139°56'0 0.1
2016-Jan-16 05:33N 35°34' E 139°56'0 0.0
2016-Jan-16 04:33N 35°34' E 139°56'9 9.0
2016-Jan-16 03:33N 35°27' E 139°49'1110.6
2016-Jan-16 02:33N 35°16' E 139°46'9 8.8
2016-Jan-16 01:33N 35°07' E 139°46'7 6.8
2016-Jan-16 00:33N 35°01' E 139°42'7 6.9
2016-Jan-15 23:33N 34°54' E 139°42'8 7.9
2016-Jan-15 22:33N 34°48' E 139°48'9 6.5
2016-Jan-15 21:12N 34°41' E 139°55'10 2.5
2016-Jan-15 17:21N 34°39' E 140°07'7 1.7
2016-Jan-15 13:06N 34°41' E 140°15'1 1.9
2016-Jan-15 12:27N 34°41' E 140°17'13 0.5
2016-Jan-14 08:30N 34°53' E 140°22'  
Track history (hours):
 
Tides and Currents Weather Stations Pressure Air Temp Water Temp Dewpoint Dewpoint Depression Visibility Wind Speed Wind Dir Waves Ship Positions

Caribbean Galaxy

Last reported at 2016-Jan-23 08:33 UTC. Time now 2016-Feb-11 08:46 UTC.
Position N 34°46' E 140°12'.
Warning: this ship's position is 19 days out of date.

Length 246 m; draft 8 m.

Type: Tanker. MMSI: 357449000.

Date/timePositionNaut miles runAvg speedWind from/ knotsBaromVisibWave heightAir tempDewpointWater temp
2016-Jan-23 08:33N 34°46' E 140°12'1212.0
2016-Jan-23 07:33N 34°48' E 139°58'1212.4
2016-Jan-23 06:33N 34°55' E 139°45'1212.5
2016-Jan-23 05:33N 35°08' E 139°45'1111.1
2016-Jan-23 04:33N 35°19' E 139°43'1111.1
2016-Jan-23 03:33N 35°29' E 139°50'7 7.0
2016-Jan-23 02:33N 35°34' E 139°56'0 0.0
2016-Jan-23 01:33N 35°34' E 139°56'0 0.0
2016-Jan-23 00:33N 35°34' E 139°56'0 0.0
2016-Jan-22 23:33N 35°34' E 139°56'0 0.0
2016-Jan-22 22:33N 35°34' E 139°56'0 0.0
2016-Jan-22 21:33N 35°34' E 139°56'0 0.0
2016-Jan-22 20:33N 35°34' E 139°56'0 0.0
2016-Jan-22 19:30N 35°34' E 139°56'0 0.1
2016-Jan-22 18:33N 35°34' E 139°56'0 0.0
2016-Jan-22 17:33N 35°34' E 139°56'0 0.1
2016-Jan-22 16:33N 35°34' E 139°56'0 0.1
2016-Jan-22 15:33N 35°34' E 139°56'0 0.0
2016-Jan-22 14:33N 35°34' E 139°56'0 0.0
2016-Jan-22 13:30N 35°34' E 139°56'0 0.0
2016-Jan-22 12:33N 35°34' E 139°56'0 0.0
2016-Jan-22 11:33N 35°34' E 139°56'0 0.0
2016-Jan-22 10:24N 35°34' E 139°56'0 0.1
2016-Jan-22 09:33N 35°34' E 139°56'0 0.0
2016-Jan-22 08:33N 35°34' E 139°56'0 0.0
2016-Jan-22 07:33N 35°34' E 139°56'0 0.0
2016-Jan-22 06:33N 35°34' E 139°56'0 0.0
2016-Jan-22 05:33N 35°34' E 139°56'6 5.5
2016-Jan-22 04:33N 35°29' E 140°00'0 0.4
2016-Jan-22 03:31N 35°29' E 140°00'0 0.0
2016-Jan-22 02:28N 35°29' E 140°00'0 0.0
2016-Jan-22 01:28N 35°29' E 140°00'0 0.0
2016-Jan-22 00:28N 35°29' E 140°00'0 0.0
2016-Jan-21 23:28N 35°29' E 140°00'0 0.0
2016-Jan-21 22:22N 35°29' E 140°00'0 0.0
2016-Jan-21 21:28N 35°29' E 140°00'0 0.0
2016-Jan-21 20:28N 35°29' E 140°00'0 0.0
2016-Jan-21 19:16N 35°29' E 140°00'0 0.0
2016-Jan-21 18:28N 35°29' E 140°00'0 0.0
2016-Jan-21 17:22N 35°29' E 140°00'0 0.0
2016-Jan-21 15:28N 35°29' E 140°00'0 0.0
2016-Jan-21 13:28N 35°29' E 140°00'0 0.0
2016-Jan-21 12:28N 35°29' E 140°00'0 0.0
2016-Jan-21 11:22N 35°29' E 140°00'0 0.0
2016-Jan-21 10:28N 35°29' E 140°00'0 0.0
2016-Jan-21 09:28N 35°29' E 140°00'0 0.0
2016-Jan-21 08:22N 35°29' E 140°00'0 0.0
2016-Jan-21 07:16N 35°29' E 140°00'0 0.0
2016-Jan-21 06:28N 35°29' E 140°00'0 0.0
2016-Jan-21 05:28N 35°29' E 140°00'0 0.0
2016-Jan-21 04:22N 35°29' E 140°00'0 0.0
2016-Jan-21 03:16N 35°29' E 140°00'0 0.0
2016-Jan-21 02:28N 35°29' E 140°00'0 0.0
2016-Jan-21 01:28N 35°29' E 140°00'1 1.4
2016-Jan-21 00:33N 35°30' E 139°59'5 4.6
2016-Jan-20 23:32N 35°34' E 139°56'0 0.1
2016-Jan-20 22:32N 35°34' E 139°56'0 0.0
2016-Jan-20 21:32N 35°34' E 139°56'0 0.0
2016-Jan-20 20:29N 35°34' E 139°56'0 0.0
2016-Jan-20 19:32N 35°34' E 139°56'0 0.0
2016-Jan-20 18:32N 35°34' E 139°56'0 0.0
2016-Jan-20 17:32N 35°34' E 139°56'0 0.1
2016-Jan-20 16:32N 35°34' E 139°56'0 0.1
2016-Jan-20 15:32N 35°34' E 139°56'0 0.0
2016-Jan-20 14:32N 35°34' E 139°56'0 0.0
2016-Jan-20 13:29N 35°34' E 139°56'0 0.0
2016-Jan-20 12:32N 35°34' E 139°56'0 0.0
2016-Jan-20 11:32N 35°34' E 139°56'0 0.1
2016-Jan-20 10:32N 35°34' E 139°56'0 0.0
2016-Jan-20 09:32N 35°34' E 139°56'0 0.0
2016-Jan-20 08:32N 35°34' E 139°56'0 0.0
2016-Jan-20 07:32N 35°34' E 139°56'0 0.0
2016-Jan-20 06:32N 35°34' E 139°56'0 0.0
2016-Jan-20 05:32N 35°34' E 139°56'0 0.0
2016-Jan-20 04:34N 35°34' E 139°56'0 0.0
2016-Jan-20 03:30N 35°34' E 139°56'0 0.0
2016-Jan-20 02:32N 35°34' E 139°56'0 0.1
2016-Jan-20 01:24N 35°34' E 139°56'0 0.1
2016-Jan-20 00:28N 35°34' E 139°56'0 0.1
2016-Jan-19 23:26N 35°34' E 139°56'0 0.0
2016-Jan-19 22:29N 35°34' E 139°56'0 0.0
2016-Jan-19 21:26N 35°34' E 139°56'0 0.0
2016-Jan-19 20:23N 35°34' E 139°56'0 0.1
2016-Jan-19 19:30N 35°34' E 139°56'0 0.1
2016-Jan-19 18:33N 35°34' E 139°56'0 0.0
2016-Jan-19 17:31N 35°34' E 139°56'0 0.1
2016-Jan-19 16:33N 35°34' E 139°56'0 0.0
2016-Jan-19 15:31N 35°34' E 139°56'0 0.0
2016-Jan-19 14:19N 35°34' E 139°56'0 0.0
2016-Jan-19 13:32N 35°34' E 139°56'0 0.0
2016-Jan-19 12:31N 35°34' E 139°56'0 0.0
2016-Jan-19 11:32N 35°34' E 139°56'0 0.0
2016-Jan-19 10:13N 35°34' E 139°56'0 0.0
2016-Jan-19 09:22N 35°34' E 139°56'0 0.1
2016-Jan-19 08:33N 35°34' E 139°56'0 0.0
2016-Jan-19 07:34N 35°34' E 139°56'0 0.0
2016-Jan-19 06:31N 35°34' E 139°56'0 0.0
2016-Jan-19 05:32N 35°34' E 139°56'0 0.0
2016-Jan-19 04:31N 35°34' E 139°56'0 0.1
2016-Jan-19 03:34N 35°34' E 139°56'0 0.0
2016-Jan-19 02:30N 35°34' E 139°56'0 0.0
2016-Jan-19 01:33N 35°34' E 139°56'0 0.0
2016-Jan-19 00:31N 35°34' E 139°56'0 0.0
2016-Jan-18 23:30N 35°34' E 139°56'0 0.0
2016-Jan-18 22:34N 35°34' E 139°56'0 0.0
2016-Jan-18 21:31N 35°34' E 139°56'0 0.0
2016-Jan-18 20:32N 35°34' E 139°56'0 0.0
2016-Jan-18 19:29N 35°34' E 139°56'0 0.0
2016-Jan-18 18:32N 35°34' E 139°56'0 0.1
2016-Jan-18 17:32N 35°34' E 139°56'0 0.0
2016-Jan-18 16:31N 35°34' E 139°56'0 0.0
2016-Jan-18 15:33N 35°34' E 139°56'0 0.0
2016-Jan-18 14:32N 35°34' E 139°56'0 0.0
2016-Jan-18 13:29N 35°34' E 139°56'0 0.1
2016-Jan-18 12:22N 35°34' E 139°56'0 0.1
2016-Jan-18 11:32N 35°34' E 139°56'0 0.2
2016-Jan-18 10:32N 35°34' E 139°56'0 0.0
2016-Jan-18 09:32N 35°34' E 139°56'0 0.1
2016-Jan-18 08:32N 35°34' E 139°56'0 0.0
2016-Jan-18 07:33N 35°34' E 139°56'0 0.0
2016-Jan-18 06:29N 35°34' E 139°56'0 0.0
2016-Jan-18 05:32N 35°34' E 139°56'0 0.1
2016-Jan-18 04:33N 35°34' E 139°56'0 0.0
2016-Jan-18 03:33N 35°34' E 139°56'0 0.0
2016-Jan-18 02:31N 35°34' E 139°56'0 0.1
2016-Jan-18 01:32N 35°34' E 139°56'0 0.0
2016-Jan-18 00:30N 35°34' E 139°56'0 0.0
2016-Jan-17 23:33N 35°34' E 139°56'0 0.0
2016-Jan-17 22:33N 35°34' E 139°56'0 0.0
2016-Jan-17 21:33N 35°34' E 139°56'0 0.0
2016-Jan-17 20:30N 35°34' E 139°56'0 0.1
2016-Jan-17 19:33N 35°34' E 139°56'0 0.1
2016-Jan-17 18:33N 35°34' E 139°56'0 0.1
2016-Jan-17 17:33N 35°34' E 139°56'0 0.0
2016-Jan-17 16:30N 35°34' E 139°56'0 0.0
2016-Jan-17 15:30N 35°34' E 139°56'0 0.0
2016-Jan-17 14:33N 35°34' E 139°56'0 0.0
2016-Jan-17 13:30N 35°34' E 139°56'0 0.0
2016-Jan-17 12:33N 35°34' E 139°56'0 0.0
2016-Jan-17 11:30N 35°34' E 139°56'0 0.1
2016-Jan-17 10:27N 35°34' E 139°56'0 0.0
2016-Jan-17 09:33N 35°34' E 139°56'0 0.0
2016-Jan-17 08:33N 35°34' E 139°56'0 0.0
2016-Jan-17 07:33N 35°34' E 139°56'0 0.1
2016-Jan-17 06:33N 35°34' E 139°56'0 0.0
2016-Jan-17 05:33N 35°34' E 139°56'0 0.0
2016-Jan-17 04:33N 35°34' E 139°56'0 0.0
2016-Jan-17 03:30N 35°34' E 139°56'0 0.1
2016-Jan-17 02:33N 35°34' E 139°56'0 0.0
2016-Jan-17 01:33N 35°34' E 139°56'0 0.0
2016-Jan-17 00:33N 35°34' E 139°56'0 0.0
2016-Jan-16 23:33N 35°34' E 139°56'0 0.0
2016-Jan-16 22:33N 35°34' E 139°56'0 0.0
2016-Jan-16 21:30N 35°34' E 139°56'0 0.1
2016-Jan-16 20:33N 35°34' E 139°56'0 0.0
2016-Jan-16 19:33N 35°34' E 139°56'0 0.1
2016-Jan-16 18:33N 35°34' E 139°56'0 0.0
2016-Jan-16 17:33N 35°34' E 139°56'0 0.0
2016-Jan-16 16:33N 35°34' E 139°56'0 0.0
2016-Jan-16 15:33N 35°34' E 139°56'0 0.0
2016-Jan-16 14:33N 35°34' E 139°56'0 0.1
2016-Jan-16 13:33N 35°34' E 139°56'0 0.1
2016-Jan-16 12:33N 35°34' E 139°56'0 0.0
2016-Jan-16 11:33N 35°34' E 139°56'0 0.2
2016-Jan-16 10:33N 35°34' E 139°56'0 0.1
2016-Jan-16 09:33N 35°34' E 139°56'0 0.1
2016-Jan-16 08:33N 35°34' E 139°56'0 0.1
2016-Jan-16 07:27N 35°34' E 139°56'0 0.1
2016-Jan-16 06:30N 35°34' E 139°56'0 0.1
2016-Jan-16 05:33N 35°34' E 139°56'0 0.0
2016-Jan-16 04:33N 35°34' E 139°56'9 9.0
2016-Jan-16 03:33N 35°27' E 139°49'1110.6
2016-Jan-16 02:33N 35°16' E 139°46'9 8.8
2016-Jan-16 01:33N 35°07' E 139°46'7 6.8
2016-Jan-16 00:33N 35°01' E 139°42'7 6.9
2016-Jan-15 23:33N 34°54' E 139°42'8 7.9
2016-Jan-15 22:33N 34°48' E 139°48'9 6.5
2016-Jan-15 21:12N 34°41' E 139°55'10 2.5
2016-Jan-15 17:21N 34°39' E 140°07'7 1.7
2016-Jan-15 13:06N 34°41' E 140°15'1 1.9
2016-Jan-15 12:27N 34°41' E 140°17'13 0.5
2016-Jan-14 08:30N 34°53' E 140°22'  

Dump ship's entire track history